Time;durP1;ratioP1;P1;durP2;ratioP2;P2;SDS_P1;SDS_P2;PMS_P1;PMS_P2;Temp;Humidity;BMP_temperature;BMP_pressure;BME280_temperature;BME280_humidity;BME280_pressure;Samples;Min_cycle;Max_cycle;Signal;HPM_P1;HPM_P2
2023/05/20 00:00:08;;;;;;;9.82;4.82;;;11.40;99.90;;;;;;5093885;28;20040;-63
2023/05/20 00:02:34;;;;;;;19.08;5.93;;;11.30;99.90;;;;;;5094541;28;20043;-62
2023/05/20 00:05:00;;;;;;;14.15;5.55;;;11.40;99.90;;;;;;5093299;28;20051;-63
2023/05/20 00:07:25;;;;;;;12.23;4.95;;;11.40;99.90;;;;;;5092901;28;20055;-63
2023/05/20 00:09:51;;;;;;;17.63;5.70;;;11.30;99.90;;;;;;5094358;28;20044;-63
2023/05/20 00:12:17;;;;;;;12.27;5.25;;;11.30;99.90;;;;;;5102397;28;20030;-63
2023/05/20 00:14:43;;;;;;;11.18;5.70;;;11.30;99.90;;;;;;5113919;28;20395;-63
2023/05/20 00:17:08;;;;;;;13.38;4.93;;;11.30;99.90;;;;;;5114262;28;20467;-63
2023/05/20 00:19:34;;;;;;;11.57;5.35;;;11.20;99.90;;;;;;5114254;28;20123;-63
2023/05/20 00:22:00;;;;;;;17.63;5.80;;;11.20;99.90;;;;;;5113988;27;20042;-63
2023/05/20 00:24:26;;;;;;;14.43;6.13;;;11.20;99.90;;;;;;5112984;28;20035;-63
2023/05/20 00:26:52;;;;;;;15.32;5.10;;;11.20;99.90;;;;;;5076772;28;20044;-63
2023/05/20 00:29:20;;;;;;;13.20;5.53;;;11.20;99.90;;;;;;5093123;28;20040;-63
2023/05/20 00:31:46;;;;;;;12.48;5.45;;;11.20;99.90;;;;;;5093329;28;20040;-63
2023/05/20 00:34:12;;;;;;;12.15;5.60;;;11.20;99.90;;;;;;5092752;28;20081;-63
2023/05/20 00:36:38;;;;;;;11.27;5.93;;;11.10;99.90;;;;;;5109695;28;20040;-63
2023/05/20 00:39:03;;;;;;;12.95;5.35;;;11.10;99.90;;;;;;5114620;28;20035;-63
2023/05/20 00:41:29;;;;;;;15.32;7.47;;;11.10;99.90;;;;;;5112951;28;20046;-63
2023/05/20 00:43:55;;;;;;;11.30;5.75;;;11.10;99.90;;;;;;5109567;28;20047;-63
2023/05/20 00:46:22;;;;;;;10.40;5.47;;;11.10;99.90;;;;;;5113357;27;20384;-63
2023/05/20 00:48:49;;;;;;;12.13;5.82;;;11.10;99.90;;;;;;5113377;27;20036;-63
2023/05/20 00:51:15;;;;;;;20.05;7.28;;;11.10;99.90;;;;;;5112437;28;20118;-63
2023/05/20 00:53:42;;;;;;;14.45;6.55;;;11.10;99.90;;;;;;5112195;28;20127;-63
2023/05/20 00:56:08;;;;;;;14.95;6.00;;;11.10;99.90;;;;;;5100065;28;20046;-63
2023/05/20 00:58:35;;;;;;;14.45;6.53;;;11.10;99.90;;;;;;5092002;28;20044;-63
2023/05/20 01:01:01;;;;;;;14.40;7.22;;;11.10;99.90;;;;;;5092215;28;20059;-61
2023/05/20 01:03:28;;;;;;;13.23;6.57;;;11.10;99.90;;;;;;5092197;28;20101;-61
2023/05/20 01:05:54;;;;;;;13.93;6.57;;;11.10;99.90;;;;;;5092985;28;20477;-61
2023/05/20 01:08:21;;;;;;;12.20;6.75;;;11.10;99.90;;;;;;5091474;28;20040;-61
2023/05/20 01:10:52;;;;;;;15.88;6.47;;;11.10;99.90;;;;;;5091795;28;20468;-61
2023/05/20 01:13:22;;;;;;;14.70;6.47;;;11.10;99.90;;;;;;5091800;28;20036;-61
2023/05/20 01:15:49;;;;;;;17.40;7.90;;;11.00;99.90;;;;;;5099766;28;20127;-61
2023/05/20 01:18:17;;;;;;;11.73;6.93;;;11.00;99.90;;;;;;5111095;28;20123;-61
2023/05/20 01:20:47;;;;;;;15.68;7.28;;;11.10;99.90;;;;;;5103201;28;20109;-61
2023/05/20 01:23:14;;;;;;;14.75;7.15;;;11.00;99.90;;;;;;5092802;28;20051;-61
2023/05/20 01:25:41;;;;;;;17.00;8.15;;;11.00;99.90;;;;;;5090913;28;20396;-61
2023/05/20 01:28:07;;;;;;;14.85;6.95;;;11.00;99.90;;;;;;5093111;28;20078;-61
2023/05/20 01:30:39;;;;;;;18.08;6.97;;;11.00;99.90;;;;;;5091536;28;20076;-61
2023/05/20 01:33:10;;;;;;;17.35;7.13;;;11.00;99.90;;;;;;5093407;28;20040;-61
2023/05/20 01:35:36;;;;;;;17.70;7.18;;;11.00;99.90;;;;;;5092349;28;20534;-61
2023/05/20 01:38:05;;;;;;;11.60;6.80;;;11.00;99.90;;;;;;5091074;28;20047;-61
2023/05/20 01:40:32;;;;;;;20.77;6.60;;;10.90;99.90;;;;;;5092353;28;20089;-61
2023/05/20 01:42:58;;;;;;;16.02;7.00;;;10.90;99.90;;;;;;5092736;28;20070;-61
2023/05/20 01:45:24;;;;;;;14.15;6.25;;;10.90;99.90;;;;;;5091374;28;20071;-61
2023/05/20 01:47:50;;;;;;;15.68;6.82;;;10.90;99.90;;;;;;5091431;28;20125;-61
2023/05/20 01:50:16;;;;;;;14.75;7.68;;;10.90;99.90;;;;;;5092079;28;20173;-61
2023/05/20 01:52:42;;;;;;;13.60;6.70;;;10.90;99.90;;;;;;5073364;28;20476;-61
2023/05/20 01:55:08;;;;;;;13.18;7.55;;;10.90;99.90;;;;;;5101450;28;20040;-61
2023/05/20 01:57:33;;;;;;;14.60;7.03;;;10.90;99.90;;;;;;5111290;28;20036;-61
2023/05/20 01:59:59;;;;;;;12.55;7.40;;;10.90;99.90;;;;;;5112224;28;20054;-61
2023/05/20 02:02:25;;;;;;;11.10;6.53;;;10.80;99.90;;;;;;5110899;28;20122;-61
2023/05/20 02:04:52;;;;;;;11.30;6.93;;;10.80;99.90;;;;;;5111113;28;20047;-61
2023/05/20 02:07:18;;;;;;;18.77;7.40;;;10.80;99.90;;;;;;5111875;28;20468;-61
2023/05/20 02:09:44;;;;;;;12.05;6.72;;;10.80;99.90;;;;;;5108187;28;20051;-61
2023/05/20 02:12:16;;;;;;;14.90;7.22;;;10.80;99.90;;;;;;5112223;28;20042;-61
2023/05/20 02:14:46;;;;;;;12.00;7.55;;;10.80;99.90;;;;;;5110415;28;20047;-61
2023/05/20 02:17:15;;;;;;;12.85;7.13;;;10.70;99.90;;;;;;5111035;28;20047;-61
2023/05/20 02:19:42;;;;;;;14.55;7.45;;;10.70;99.90;;;;;;5114197;28;20036;-61
2023/05/20 02:22:08;;;;;;;16.10;7.13;;;10.70;99.90;;;;;;5117117;28;20047;-61
2023/05/20 02:24:33;;;;;;;13.10;7.28;;;10.70;99.90;;;;;;5115348;28;20150;-61
2023/05/20 02:27:00;;;;;;;15.43;7.15;;;10.70;99.90;;;;;;5116379;28;20039;-61
2023/05/20 02:29:26;;;;;;;16.70;7.05;;;10.60;99.90;;;;;;5114147;28;20445;-61
2023/05/20 02:31:51;;;;;;;17.80;6.78;;;10.60;99.90;;;;;;5116632;28;20106;-61
2023/05/20 02:34:17;;;;;;;13.65;6.68;;;10.60;99.90;;;;;;5114310;28;20418;-61
2023/05/20 02:36:43;;;;;;;11.45;6.43;;;10.60;99.90;;;;;;5116284;28;20498;-62
2023/05/20 02:39:11;;;;;;;15.45;6.22;;;10.60;99.90;;;;;;5098405;28;20051;-61
2023/05/20 02:41:37;;;;;;;16.85;6.72;;;10.60;99.90;;;;;;5114217;28;20039;-61
2023/05/20 02:44:02;;;;;;;13.40;7.10;;;10.60;99.90;;;;;;5116374;28;20500;-61
2023/05/20 02:46:28;;;;;;;16.35;8.07;;;10.60;99.90;;;;;;5115751;28;20122;-61
2023/05/20 02:48:54;;;;;;;14.32;7.63;;;10.60;99.90;;;;;;5114264;28;20052;-61
2023/05/20 02:51:20;;;;;;;11.48;6.72;;;10.60;99.90;;;;;;5114647;28;20122;-61
2023/05/20 02:53:46;;;;;;;13.05;6.18;;;10.60;99.90;;;;;;5116685;28;20046;-61
2023/05/20 02:56:12;;;;;;;15.88;7.55;;;10.60;99.90;;;;;;5097056;28;20047;-61
2023/05/20 02:58:38;;;;;;;13.32;6.60;;;10.60;99.90;;;;;;5114943;28;20396;-61
2023/05/20 03:01:04;;;;;;;10.50;5.50;;;10.60;99.90;;;;;;5115703;28;20043;-61
2023/05/20 03:03:30;;;;;;;10.98;6.35;;;10.60;99.90;;;;;;5114884;28;20062;-61
2023/05/20 03:05:55;;;;;;;11.70;6.80;;;10.60;99.90;;;;;;5116034;28;20043;-61
2023/05/20 03:08:22;;;;;;;12.25;6.20;;;10.60;99.90;;;;;;5115402;28;20040;-61
2023/05/20 03:10:48;;;;;;;12.63;5.85;;;10.60;99.90;;;;;;5115172;28;20466;-61
2023/05/20 03:13:14;;;;;;;14.13;6.03;;;10.50;99.90;;;;;;5115738;28;20468;-61
2023/05/20 03:15:46;;;;;;;15.85;6.15;;;10.50;99.90;;;;;;5114669;28;20100;-61
2023/05/20 03:18:12;;;;;;;10.82;5.80;;;10.50;99.90;;;;;;5115000;28;20031;-61
2023/05/20 03:20:38;;;;;;;12.38;5.28;;;10.50;99.90;;;;;;5104709;28;20489;-61
2023/05/20 03:23:05;;;;;;;12.55;6.00;;;10.50;99.90;;;;;;5094906;28;20040;-61
2023/05/20 03:25:30;;;;;;;10.95;6.03;;;10.50;99.90;;;;;;5094746;28;20040;-60
2023/05/20 03:27:59;;;;;;;8.98;5.32;;;10.50;99.90;;;;;;5094079;28;20048;-61
2023/05/20 03:30:28;;;;;;;11.65;5.60;;;10.40;99.90;;;;;;5098062;28;20048;-61
2023/05/20 03:32:56;;;;;;;9.98;5.65;;;10.40;99.90;;;;;;5115581;28;20057;-60
2023/05/20 03:35:22;;;;;;;12.13;5.38;;;10.40;99.90;;;;;;5113761;28;20043;-61
2023/05/20 03:37:48;;;;;;;10.75;4.93;;;10.40;99.90;;;;;;5107220;28;20355;-61
2023/05/20 03:40:13;;;;;;;11.93;5.05;;;10.40;99.90;;;;;;5097954;28;20035;-60
2023/05/20 03:42:39;;;;;;;12.68;4.85;;;10.40;99.90;;;;;;5112997;28;20059;-61
2023/05/20 03:45:05;;;;;;;11.43;5.03;;;10.30;99.90;;;;;;5114326;28;20047;-61
2023/05/20 03:47:31;;;;;;;11.88;4.60;;;10.30;99.90;;;;;;5113528;28;20161;-61
2023/05/20 03:49:57;;;;;;;9.20;4.53;;;10.30;99.90;;;;;;5112414;28;20115;-61
2023/05/20 03:52:22;;;;;;;8.18;4.25;;;10.30;99.90;;;;;;5092262;28;20040;-61
2023/05/20 03:54:48;;;;;;;7.50;3.90;;;10.30;99.90;;;;;;5094667;28;20036;-61
2023/05/20 03:57:14;;;;;;;11.93;5.13;;;10.40;99.90;;;;;;5094407;28;20046;-61
2023/05/20 03:59:39;;;;;;;11.63;4.43;;;10.30;99.90;;;;;;5093839;28;20051;-61
2023/05/20 04:02:05;;;;;;;9.50;4.28;;;10.30;99.90;;;;;;5077055;28;20051;-61
2023/05/20 04:04:31;;;;;;;8.23;4.20;;;10.40;99.90;;;;;;5094184;28;20046;-61
2023/05/20 04:07:00;;;;;;;8.40;3.50;;;10.30;99.90;;;;;;5092744;28;20048;-61
2023/05/20 04:09:26;;;;;;;6.85;4.03;;;10.30;99.90;;;;;;5094044;28;20434;-61
2023/05/20 04:11:52;;;;;;;10.77;4.22;;;10.40;99.90;;;;;;5111232;28;20039;-61
2023/05/20 04:14:18;;;;;;;13.10;3.50;;;10.40;99.90;;;;;;5113801;28;20138;-61
2023/05/20 04:16:44;;;;;;;5.88;3.08;;;10.40;99.90;;;;;;5113200;28;20085;-61
2023/05/20 04:19:11;;;;;;;8.55;3.05;;;10.50;99.90;;;;;;5114327;28;20553;-61
2023/05/20 04:21:37;;;;;;;6.65;2.60;;;10.40;99.90;;;;;;5097662;28;20080;-61
2023/05/20 04:24:03;;;;;;;8.95;3.22;;;10.50;99.90;;;;;;5094253;28;20043;-61
2023/05/20 04:26:28;;;;;;;5.93;2.75;;;10.50;99.90;;;;;;5092966;28;20400;-61
2023/05/20 04:28:57;;;;;;;8.55;3.00;;;10.50;99.90;;;;;;5106049;28;20032;-61
2023/05/20 04:31:25;;;;;;;7.82;2.92;;;10.50;99.90;;;;;;5107917;28;20400;-61
2023/05/20 04:33:54;;;;;;;8.75;3.60;;;10.50;99.90;;;;;;5093710;28;20074;-61
2023/05/20 04:36:20;;;;;;;6.05;2.65;;;10.60;99.90;;;;;;5093894;28;20040;-61
2023/05/20 04:38:47;;;;;;;6.60;2.80;;;10.60;99.90;;;;;;5092806;28;20039;-61
2023/05/20 04:41:12;;;;;;;5.70;2.65;;;10.60;99.90;;;;;;5106743;28;20402;-61
2023/05/20 04:43:38;;;;;;;12.30;3.70;;;10.70;99.90;;;;;;5113795;28;20123;-61
2023/05/20 04:46:04;;;;;;;8.18;3.40;;;10.70;99.90;;;;;;5097691;28;20036;-61
2023/05/20 04:48:31;;;;;;;9.35;4.35;;;10.70;99.90;;;;;;5096678;28;20377;-61
2023/05/20 04:50:56;;;;;;;60.03;33.53;;;10.70;99.90;;;;;;5093730;28;20058;-61
2023/05/20 04:53:22;;;;;;;67.47;35.97;;;10.70;99.90;;;;;;5093354;28;20032;-61
2023/05/20 04:55:52;;;;;;;57.10;31.30;;;10.70;99.90;;;;;;5105667;28;20408;-61
2023/05/20 04:58:18;;;;;;;18.15;9.27;;;10.80;99.90;;;;;;5112045;28;20040;-61
2023/05/20 05:00:44;;;;;;;37.42;25.00;;;10.80;99.90;;;;;;5100010;28;20416;-61
2023/05/20 05:03:13;;;;;;;11.82;6.97;;;10.90;99.90;;;;;;5091484;28;20070;-61
2023/05/20 05:05:39;;;;;;;8.38;5.90;;;10.90;99.90;;;;;;5101704;28;20062;-61
2023/05/20 05:08:05;;;;;;;6.65;3.10;;;11.00;99.90;;;;;;5113237;28;20039;-61
2023/05/20 05:10:32;;;;;;;9.02;8.20;;;11.00;99.90;;;;;;5112466;28;20567;-61
2023/05/20 05:12:58;;;;;;;6.85;2.55;;;11.20;99.90;;;;;;5113995;28;20036;-61
2023/05/20 05:15:24;;;;;;;8.07;2.78;;;11.30;99.90;;;;;;5103866;28;20043;-61
2023/05/20 05:17:50;;;;;;;6.70;2.50;;;11.40;99.90;;;;;;5091287;28;20086;-61
2023/05/20 05:20:16;;;;;;;4.97;2.03;;;11.60;99.90;;;;;;5092794;28;20123;-61
2023/05/20 05:22:42;;;;;;;6.88;2.65;;;11.60;99.90;;;;;;5092586;28;20092;-61
2023/05/20 05:25:08;;;;;;;5.75;2.83;;;11.60;99.90;;;;;;5098327;28;20430;-61
2023/05/20 05:27:34;;;;;;;5.18;2.38;;;11.60;99.90;;;;;;5111560;28;20078;-61
2023/05/20 05:30:01;;;;;;;6.82;3.75;;;11.60;99.90;;;;;;5112567;28;20086;-61
2023/05/20 05:32:27;;;;;;;7.63;5.05;;;11.50;99.90;;;;;;5112972;28;20039;-61
2023/05/20 05:34:53;;;;;;;7.70;2.42;;;11.40;99.90;;;;;;5091931;28;20035;-61
2023/05/20 05:37:20;;;;;;;5.60;2.20;;;11.40;99.90;;;;;;5091877;28;20539;-61
2023/05/20 05:39:45;;;;;;;5.38;2.08;;;11.40;99.90;;;;;;5091824;28;20065;-61
2023/05/20 05:42:11;;;;;;;10.02;4.07;;;11.40;99.90;;;;;;5092347;28;20118;-62
2023/05/20 05:44:37;;;;;;;12.70;6.28;;;11.40;99.90;;;;;;5091943;28;20036;-61
2023/05/20 05:47:03;;;;;;;19.90;11.13;;;11.40;99.90;;;;;;5095132;28;20143;-61
2023/05/20 05:49:28;;;;;;;7.72;4.85;;;11.50;99.90;;;;;;5092262;28;20104;-61
2023/05/20 05:51:54;;;;;;;5.65;2.33;;;11.60;99.90;;;;;;5092311;28;20365;-61
2023/05/20 05:54:20;;;;;;;5.85;3.33;;;11.70;99.90;;;;;;5090205;28;20071;-61
2023/05/20 05:56:46;;;;;;;4.53;2.75;;;11.70;99.90;;;;;;5097012;28;20105;-61
2023/05/20 05:59:12;;;;;;;7.63;3.75;;;11.80;99.90;;;;;;5091679;28;20047;-61
2023/05/20 06:01:37;;;;;;;11.48;5.82;;;11.90;99.90;;;;;;5092409;28;20397;-61
2023/05/20 06:04:03;;;;;;;10.00;4.22;;;12.00;99.90;;;;;;5092371;28;20118;-61
2023/05/20 06:06:30;;;;;;;11.00;4.75;;;12.30;99.90;;;;;;5105107;28;20054;-61
2023/05/20 06:08:56;;;;;;;13.80;9.32;;;12.50;99.90;;;;;;5111697;28;20047;-61
2023/05/20 06:11:23;;;;;;;5.65;2.60;;;12.70;99.90;;;;;;5112503;28;20364;-61
2023/05/20 06:13:49;;;;;;;12.30;6.70;;;12.90;99.90;;;;;;5107087;28;20545;-61
2023/05/20 06:16:15;;;;;;;8.77;2.58;;;13.00;99.90;;;;;;5089156;28;20048;-61
2023/05/20 06:18:41;;;;;;;5.38;2.38;;;13.10;99.90;;;;;;5092201;28;20141;-61
2023/05/20 06:21:07;;;;;;;5.40;2.25;;;13.30;99.90;;;;;;5086934;28;20114;-61
2023/05/20 06:23:32;;;;;;;9.27;2.63;;;13.40;99.90;;;;;;5112061;28;20508;-61
2023/05/20 06:25:59;;;;;;;6.03;1.95;;;13.50;99.90;;;;;;5099840;28;20036;-61
2023/05/20 06:28:26;;;;;;;7.55;3.45;;;13.60;99.90;;;;;;5090770;28;20362;-61
2023/05/20 06:30:53;;;;;;;9.43;4.00;;;13.70;99.90;;;;;;5093340;28;20036;-61
2023/05/20 06:33:20;;;;;;;8.95;4.55;;;13.80;99.90;;;;;;5091448;28;20032;-61
2023/05/20 06:35:46;;;;;;;6.40;3.35;;;13.90;99.90;;;;;;5082978;28;20035;-61
2023/05/20 06:38:13;;;;;;;4.18;1.70;;;14.00;99.90;;;;;;5106094;28;20058;-62
2023/05/20 06:40:39;;;;;;;9.43;3.33;;;14.00;99.90;;;;;;5101342;28;20456;-61
2023/05/20 06:43:04;;;;;;;5.55;2.88;;;14.10;99.90;;;;;;5090641;28;20131;-61
2023/05/20 06:45:30;;;;;;;8.07;3.95;;;14.10;99.90;;;;;;5092055;28;20166;-61
2023/05/20 06:47:56;;;;;;;5.95;2.53;;;14.10;99.90;;;;;;5071000;28;20140;-61
2023/05/20 06:50:22;;;;;;;5.63;2.47;;;14.10;99.90;;;;;;5073924;28;20119;-62
2023/05/20 06:52:48;;;;;;;7.47;1.98;;;14.20;99.90;;;;;;5091856;28;20048;-62
2023/05/20 06:55:13;;;;;;;3.08;1.30;;;14.20;99.90;;;;;;5107748;28;20092;-61
2023/05/20 06:57:39;;;;;;;4.60;1.80;;;14.20;99.90;;;;;;5107301;28;20599;-62
2023/05/20 07:00:05;;;;;;;4.20;1.60;;;14.30;99.90;;;;;;5109694;28;20078;-62
2023/05/20 07:02:33;;;;;;;4.18;1.38;;;14.40;99.90;;;;;;5108280;28;20036;-62
2023/05/20 07:04:58;;;;;;;6.03;1.70;;;14.50;99.90;;;;;;5109965;28;20126;-62
2023/05/20 07:07:24;;;;;;;4.97;1.63;;;14.50;99.90;;;;;;5111730;28;20040;-61
2023/05/20 07:09:51;;;;;;;6.15;2.03;;;14.60;99.90;;;;;;5094460;28;20047;-62
2023/05/20 07:12:17;;;;;;;5.75;1.60;;;14.60;99.90;;;;;;5110216;28;20050;-61
2023/05/20 07:14:43;;;;;;;3.95;1.60;;;14.60;99.90;;;;;;5111070;28;20028;-61
2023/05/20 07:17:10;;;;;;;3.53;1.77;;;14.70;99.90;;;;;;5092225;28;20140;-61
2023/05/20 07:19:35;;;;;;;6.32;1.70;;;14.70;99.90;;;;;;5091471;28;20759;-61
2023/05/20 07:22:01;;;;;;;6.68;2.08;;;14.80;99.90;;;;;;5092425;28;20079;-61
2023/05/20 07:24:26;;;;;;;4.30;1.75;;;14.80;99.90;;;;;;5091900;28;20091;-61
2023/05/20 07:26:52;;;;;;;6.72;2.05;;;14.90;99.90;;;;;;5110803;28;20127;-61
2023/05/20 07:29:18;;;;;;;4.97;1.60;;;15.00;99.90;;;;;;5097840;28;20157;-61
2023/05/20 07:31:43;;;;;;;4.95;2.00;;;15.00;99.90;;;;;;5091694;28;20495;-61
2023/05/20 07:34:09;;;;;;;3.72;1.77;;;15.10;99.90;;;;;;5107630;28;20119;-61
2023/05/20 07:36:35;;;;;;;4.65;1.85;;;15.10;99.90;;;;;;5095957;28;20044;-61
2023/05/20 07:39:00;;;;;;;5.20;1.92;;;15.20;99.90;;;;;;5091591;28;20051;-62
2023/05/20 07:41:26;;;;;;;7.68;2.13;;;15.20;99.90;;;;;;5090890;28;20443;-61
2023/05/20 07:43:51;;;;;;;6.18;2.10;;;15.30;99.90;;;;;;5091996;28;20052;-61
2023/05/20 07:46:17;;;;;;;3.83;1.38;;;15.30;99.90;;;;;;5091957;28;20453;-61
2023/05/20 07:48:43;;;;;;;7.50;1.80;;;15.30;99.90;;;;;;5091010;28;20055;-57
2023/05/20 07:51:10;;;;;;;9.82;2.00;;;15.30;99.90;;;;;;5091649;28;20283;-56
2023/05/20 07:53:36;;;;;;;4.43;1.90;;;15.30;99.90;;;;;;5092281;28;20044;-58
2023/05/20 07:56:02;;;;;;;5.82;1.88;;;15.40;99.90;;;;;;5075681;28;20090;-58
2023/05/20 07:58:28;;;;;;;3.55;1.50;;;15.40;99.90;;;;;;5091086;28;20484;-58
2023/05/20 08:00:54;;;;;;;5.45;2.00;;;15.50;99.90;;;;;;5099627;28;20040;-58
2023/05/20 08:03:21;;;;;;;6.72;1.90;;;15.40;99.90;;;;;;5112317;28;20044;-58
2023/05/20 08:05:46;;;;;;;4.85;1.80;;;15.40;99.90;;;;;;5096268;28;20409;-58
2023/05/20 08:08:12;;;;;;;7.07;2.17;;;15.50;99.90;;;;;;5091984;28;20036;-59
2023/05/20 08:10:38;;;;;;;4.85;1.75;;;15.50;99.90;;;;;;5088778;28;20044;-58
2023/05/20 08:13:04;;;;;;;3.85;1.35;;;15.60;99.90;;;;;;5091513;28;20059;-58
2023/05/20 08:15:29;;;;;;;5.40;1.90;;;15.70;99.90;;;;;;5091565;28;20040;-58
2023/05/20 08:17:55;;;;;;;6.13;1.70;;;15.60;99.90;;;;;;5089883;28;20035;-58
2023/05/20 08:20:21;;;;;;;5.32;1.77;;;15.60;99.90;;;;;;5088928;28;20044;-59
2023/05/20 08:22:46;;;;;;;7.10;1.90;;;15.70;99.90;;;;;;5106694;28;20118;-58
2023/05/20 08:25:13;;;;;;;4.55;1.65;;;15.70;99.90;;;;;;5112050;28;20032;-58
2023/05/20 08:27:39;;;;;;;3.90;1.40;;;15.90;99.90;;;;;;5102429;28;20487;-58
2023/05/20 08:30:08;;;;;;;4.57;1.70;;;15.90;99.90;;;;;;5093944;28;20083;-58
2023/05/20 08:32:34;;;;;;;5.97;2.10;;;16.00;99.90;;;;;;5095992;28;20035;-58
2023/05/20 08:35:01;;;;;;;4.78;1.70;;;16.00;99.90;;;;;;5098572;28;20054;-59
2023/05/20 08:37:28;;;;;;;4.22;1.75;;;16.00;99.90;;;;;;5099799;28;20043;-59
2023/05/20 08:39:54;;;;;;;5.43;1.90;;;16.10;99.90;;;;;;5091964;28;20043;-60
2023/05/20 08:42:23;;;;;;;4.68;1.90;;;16.20;99.90;;;;;;5092827;28;20384;-59
2023/05/20 08:44:53;;;;;;;7.43;1.85;;;16.20;99.90;;;;;;5093900;28;20234;-59
2023/05/20 08:47:23;;;;;;;5.75;1.85;;;16.20;99.90;;;;;;5092815;28;20362;-63
2023/05/20 08:49:49;;;;;;;5.60;1.50;;;16.30;99.90;;;;;;5093525;28;20044;-59
2023/05/20 08:52:20;;;;;;;5.13;1.70;;;16.30;99.90;;;;;;5093302;28;20032;-59
2023/05/20 08:54:48;;;;;;;5.55;2.47;;;16.40;99.90;;;;;;5092870;28;20071;-59
2023/05/20 08:57:14;;;;;;;4.30;1.52;;;16.40;99.90;;;;;;5091845;28;20492;-59
2023/05/20 08:59:45;;;;;;;4.55;2.10;;;16.50;99.90;;;;;;5091998;28;20048;-59
2023/05/20 09:02:12;;;;;;;6.00;1.77;;;16.40;99.90;;;;;;5091314;28;20472;-59
2023/05/20 09:04:37;;;;;;;4.25;1.40;;;16.40;99.90;;;;;;5093242;28;20040;-59
2023/05/20 09:07:03;;;;;;;5.07;1.83;;;16.40;99.90;;;;;;5075469;28;20051;-58
2023/05/20 09:09:29;;;;;;;4.88;1.75;;;16.50;99.90;;;;;;5092293;28;20154;-59
2023/05/20 09:11:55;;;;;;;5.53;1.83;;;16.70;99.90;;;;;;5105947;28;20172;-58
2023/05/20 09:14:25;;;;;;;5.57;1.65;;;16.80;99.90;;;;;;5110869;28;20106;-59
2023/05/20 09:16:51;;;;;;;4.45;1.50;;;17.00;99.90;;;;;;5109913;28;20039;-58
2023/05/20 09:19:19;;;;;;;5.95;1.60;;;17.00;99.90;;;;;;5094450;28;20051;-58
2023/05/20 09:21:46;;;;;;;8.40;2.60;;;16.90;99.90;;;;;;5092273;28;20040;-58
2023/05/20 09:24:12;;;;;;;3.58;1.50;;;16.80;99.90;;;;;;5092590;28;20044;-59
2023/05/20 09:26:38;;;;;;;6.03;2.17;;;16.80;99.90;;;;;;5108605;28;20379;-58
2023/05/20 09:29:03;;;;;;;4.57;1.60;;;16.70;99.90;;;;;;5108628;28;20071;-58
2023/05/20 09:31:32;;;;;;;3.78;1.73;;;16.60;99.90;;;;;;5095944;28;20488;-58
2023/05/20 09:33:59;;;;;;;9.38;1.85;;;16.60;99.90;;;;;;5111829;28;20597;-58
2023/05/20 09:36:28;;;;;;;4.85;1.92;;;16.70;99.90;;;;;;5110186;28;20089;-59
2023/05/20 09:38:59;;;;;;;5.45;1.88;;;16.80;99.90;;;;;;5081911;28;20048;-58
2023/05/20 09:41:31;;;;;;;7.28;2.00;;;16.90;99.90;;;;;;5099018;28;20123;-58
2023/05/20 09:43:57;;;;;;;7.72;2.15;;;16.90;99.90;;;;;;5099242;28;20122;-58
2023/05/20 09:46:24;;;;;;;4.72;1.90;;;16.80;99.90;;;;;;5097019;28;20040;-58
2023/05/20 09:48:50;;;;;;;6.28;1.88;;;16.90;99.90;;;;;;5092671;28;20048;-58
2023/05/20 09:51:16;;;;;;;6.53;1.80;;;16.90;99.90;;;;;;5090677;28;20032;-58
2023/05/20 09:53:42;;;;;;;6.35;1.80;;;16.90;99.90;;;;;;5106150;28;20036;-59
2023/05/20 09:56:07;;;;;;;6.00;1.88;;;16.90;99.90;;;;;;5091654;28;20487;-58
2023/05/20 09:58:35;;;;;;;6.60;2.00;;;16.90;99.90;;;;;;5090153;28;20119;-58
2023/05/20 10:01:00;;;;;;;5.40;1.98;;;16.90;99.90;;;;;;5098882;28;20080;-58
2023/05/20 10:03:26;;;;;;;4.95;1.60;;;17.00;99.90;;;;;;5092283;28;20067;-59
2023/05/20 10:06:30;;;;;;;6.82;2.35;;;17.10;99.90;;;;;;5090493;28;20032;-58
2023/05/20 10:09:30;;;;;;;7.22;2.15;;;17.10;99.90;;;;;;5107837;28;20090;-58
2023/05/20 10:12:16;;;;;;;5.35;2.10;;;17.10;99.90;;;;;;5099274;28;20392;-58
2023/05/20 10:15:13;;;;;;;7.30;2.67;;;17.20;99.90;;;;;;5111034;28;20487;-58
2023/05/20 10:18:01;;;;;;;6.80;2.20;;;17.20;99.90;;;;;;5099566;28;20042;-58
2023/05/20 10:20:26;;;;;;;9.13;2.83;;;17.10;99.90;;;;;;5096162;28;20166;-58
2023/05/20 10:22:59;;;;;;;5.35;2.05;;;17.30;99.90;;;;;;5104734;28;20119;-58
2023/05/20 10:25:28;;;;;;;6.47;2.97;;;17.40;99.90;;;;;;5092798;28;20068;-58
2023/05/20 10:28:06;;;;;;;7.32;3.38;;;17.40;99.90;;;;;;5106964;28;20461;-58
2023/05/20 10:30:32;;;;;;;6.75;2.70;;;17.40;99.90;;;;;;5106698;28;20046;-58
2023/05/20 10:33:04;;;;;;;7.68;2.20;;;17.40;99.90;;;;;;5109485;28;20043;-58
2023/05/20 10:35:30;;;;;;;7.43;2.30;;;17.30;99.90;;;;;;5102081;28;20040;-58
2023/05/20 10:38:10;;;;;;;7.40;2.75;;;17.30;99.90;;;;;;5108613;28;20526;-59
2023/05/20 10:40:36;;;;;;;8.57;2.40;;;17.30;99.90;;;;;;5105191;28;20039;-59
2023/05/20 10:43:31;;;;;;;8.10;2.25;;;17.30;99.90;;;;;;5095245;27;20052;-58
2023/05/20 10:45:58;;;;;;;8.20;2.63;;;17.30;99.90;;;;;;5097440;28;20047;-58
2023/05/20 10:48:31;;;;;;;7.75;2.72;;;17.30;99.90;;;;;;5106457;28;20076;-58
2023/05/20 10:51:04;;;;;;;4.40;2.42;;;17.40;99.90;;;;;;5097510;28;20039;-58
2023/05/20 10:53:39;;;;;;;8.65;2.50;;;17.50;99.90;;;;;;5099012;28;20130;-58
2023/05/20 10:56:05;;;;;;;7.82;2.58;;;17.30;99.90;;;;;;5111920;28;20039;-58
2023/05/20 10:58:38;;;;;;;4.50;1.92;;;17.20;99.90;;;;;;5111671;28;20071;-59
2023/05/20 11:01:04;;;;;;;8.10;2.50;;;17.20;99.90;;;;;;5093846;28;20126;-58
2023/05/20 11:03:30;;;;;;;12.85;2.97;;;17.20;99.90;;;;;;5110125;28;20115;-60
2023/05/20 11:05:56;;;;;;;8.05;2.30;;;17.10;99.90;;;;;;5097466;28;20425;-61
2023/05/20 11:08:21;;;;;;;9.25;3.08;;;17.10;99.90;;;;;;5110990;28;20134;-60
2023/05/20 11:10:47;;;;;;;6.05;2.63;;;17.20;99.90;;;;;;5096460;28;20090;-61
2023/05/20 11:13:16;;;;;;;6.88;3.17;;;17.20;99.90;;;;;;5111539;28;20093;-59
2023/05/20 11:15:41;;;;;;;8.32;2.38;;;17.40;99.90;;;;;;5110872;28;20049;-59
2023/05/20 11:18:10;;;;;;;5.88;2.60;;;17.30;99.90;;;;;;5110896;28;20106;-60
2023/05/20 11:20:36;;;;;;;6.43;3.28;;;17.40;99.90;;;;;;5079784;28;20435;-59
2023/05/20 11:23:02;;;;;;;6.03;2.47;;;17.40;99.90;;;;;;5104811;28;20477;-61
2023/05/20 11:25:28;;;;;;;7.85;2.40;;;17.30;99.90;;;;;;5092472;28;20043;-60
2023/05/20 11:27:55;;;;;;;8.05;2.55;;;17.40;99.90;;;;;;5103730;28;20047;-60
2023/05/20 11:30:21;;;;;;;6.07;2.45;;;17.30;99.90;;;;;;5089495;28;20118;-60
2023/05/20 11:33:00;;;;;;;9.77;3.05;;;17.40;99.90;;;;;;5101598;28;20133;-60
2023/05/20 11:35:28;;;;;;;8.75;2.60;;;17.50;99.90;;;;;;5090808;28;20040;-60
2023/05/20 11:38:02;;;;;;;10.50;2.50;;;17.50;99.90;;;;;;5111102;28;20392;-60
2023/05/20 11:40:30;;;;;;;6.40;2.33;;;17.50;99.90;;;;;;5106199;28;20580;-60
2023/05/20 11:42:57;;;;;;;8.50;2.45;;;17.40;99.90;;;;;;5107198;28;20097;-61
2023/05/20 11:45:23;;;;;;;7.70;2.38;;;17.40;99.90;;;;;;5110102;28;20032;-61
2023/05/20 11:48:18;;;;;;;9.55;3.05;;;17.30;99.90;;;;;;5111288;28;20042;-60
2023/05/20 11:50:46;;;;;;;5.25;2.33;;;17.40;99.90;;;;;;5087051;28;20052;-60
2023/05/20 11:53:20;;;;;;;8.20;2.70;;;17.40;99.90;;;;;;5099715;28;20069;-59
2023/05/20 11:55:46;;;;;;;9.75;2.53;;;17.50;99.90;;;;;;5090768;28;20076;-60
2023/05/20 11:58:17;;;;;;;9.45;2.88;;;17.40;99.90;;;;;;5092230;28;20051;-61
2023/05/20 12:00:43;;;;;;;5.93;2.67;;;17.50;99.90;;;;;;5091319;28;20400;-60
2023/05/20 12:03:10;;;;;;;9.15;2.63;;;17.60;99.90;;;;;;5090634;28;20032;-60
2023/05/20 12:05:36;;;;;;;10.45;2.75;;;17.50;99.90;;;;;;5091538;28;20066;-60
2023/05/20 12:08:02;;;;;;;6.47;2.53;;;17.70;99.90;;;;;;5087284;28;20043;-60
2023/05/20 12:10:28;;;;;;;6.78;2.78;;;17.60;99.90;;;;;;5109800;28;20116;-60
2023/05/20 12:12:54;;;;;;;7.40;2.95;;;17.80;99.90;;;;;;5093970;28;20039;-60
2023/05/20 12:15:20;;;;;;;7.30;3.17;;;17.80;99.90;;;;;;5110598;28;20036;-60
2023/05/20 12:17:54;;;;;;;9.95;3.20;;;17.90;99.90;;;;;;5099993;28;20040;-60
2023/05/20 12:20:23;;;;;;;5.75;2.88;;;18.00;99.90;;;;;;5106111;28;20147;-60
2023/05/20 12:22:49;;;;;;;5.53;2.83;;;18.10;99.90;;;;;;5109246;28;20093;-60
2023/05/20 12:25:18;;;;;;;7.93;3.03;;;18.00;99.90;;;;;;5097243;28;20535;-60
2023/05/20 12:27:47;;;;;;;6.88;2.65;;;18.00;99.90;;;;;;5090556;28;20085;-60
2023/05/20 12:30:16;;;;;;;9.57;2.88;;;17.90;99.90;;;;;;5085574;28;20067;-60
2023/05/20 12:32:42;;;;;;;6.55;2.80;;;17.90;99.90;;;;;;5107406;28;20091;-60
2023/05/20 12:35:08;;;;;;;9.77;2.90;;;18.10;99.90;;;;;;5098667;27;20051;-60
2023/05/20 12:37:35;;;;;;;6.88;3.03;;;18.10;99.90;;;;;;5101366;28;20131;-60
2023/05/20 12:40:04;;;;;;;6.00;2.75;;;18.10;99.90;;;;;;5108984;28;20100;-60
2023/05/20 12:42:30;;;;;;;10.57;2.67;;;18.10;99.90;;;;;;5098059;28;20098;-60